sensor_id;sensor_type;location;lat;lon;timestamp;temperature;humidity
4399;DHT22;2213;49.720;7.296;2023-07-16T00:01:54;19.70;99.90
4399;DHT22;2213;49.720;7.296;2023-07-16T00:04:24;19.60;99.90
4399;DHT22;2213;49.720;7.296;2023-07-16T00:06:55;19.60;99.90
4399;DHT22;2213;49.720;7.296;2023-07-16T00:09:26;19.60;99.90
4399;DHT22;2213;49.720;7.296;2023-07-16T00:11:56;19.60;99.90
4399;DHT22;2213;49.720;7.296;2023-07-16T00:14:26;19.60;99.90
4399;DHT22;2213;49.720;7.296;2023-07-16T00:16:57;19.60;99.90
4399;DHT22;2213;49.720;7.296;2023-07-16T00:19:27;19.60;99.90
4399;DHT22;2213;49.720;7.296;2023-07-16T00:21:59;19.60;99.90
4399;DHT22;2213;49.720;7.296;2023-07-16T00:24:30;19.60;99.90
4399;DHT22;2213;49.720;7.296;2023-07-16T00:26:59;19.60;99.90
4399;DHT22;2213;49.720;7.296;2023-07-16T00:29:31;19.60;99.90
4399;DHT22;2213;49.720;7.296;2023-07-16T00:32:01;19.50;99.90
4399;DHT22;2213;49.720;7.296;2023-07-16T00:34:32;19.60;99.90
4399;DHT22;2213;49.720;7.296;2023-07-16T00:37:03;19.50;99.90
4399;DHT22;2213;49.720;7.296;2023-07-16T00:39:34;19.60;99.90
4399;DHT22;2213;49.720;7.296;2023-07-16T00:42:04;19.50;99.90
4399;DHT22;2213;49.720;7.296;2023-07-16T00:44:35;19.50;99.90
4399;DHT22;2213;49.720;7.296;2023-07-16T00:47:06;19.50;99.90
4399;DHT22;2213;49.720;7.296;2023-07-16T00:49:37;19.40;99.90
4399;DHT22;2213;49.720;7.296;2023-07-16T00:52:16;19.50;99.90
4399;DHT22;2213;49.720;7.296;2023-07-16T00:54:49;19.50;99.90
4399;DHT22;2213;49.720;7.296;2023-07-16T00:57:19;19.40;99.90
4399;DHT22;2213;49.720;7.296;2023-07-16T00:59:49;19.40;99.90
4399;DHT22;2213;49.720;7.296;2023-07-16T01:02:18;19.40;99.90
4399;DHT22;2213;49.720;7.296;2023-07-16T01:04:48;19.40;99.90
4399;DHT22;2213;49.720;7.296;2023-07-16T01:07:22;19.30;99.90
4399;DHT22;2213;49.720;7.296;2023-07-16T01:09:54;19.30;99.90
4399;DHT22;2213;49.720;7.296;2023-07-16T01:12:27;19.30;99.90
4399;DHT22;2213;49.720;7.296;2023-07-16T01:14:58;19.30;99.90
4399;DHT22;2213;49.720;7.296;2023-07-16T01:17:28;19.30;99.90
4399;DHT22;2213;49.720;7.296;2023-07-16T01:19:59;19.20;99.90
4399;DHT22;2213;49.720;7.296;2023-07-16T01:22:56;19.20;99.90
4399;DHT22;2213;49.720;7.296;2023-07-16T01:29:28;19.20;99.90
4399;DHT22;2213;49.720;7.296;2023-07-16T01:32:04;19.10;99.90
4399;DHT22;2213;49.720;7.296;2023-07-16T01:34:36;19.10;99.90
4399;DHT22;2213;49.720;7.296;2023-07-16T01:37:07;19.10;99.90
4399;DHT22;2213;49.720;7.296;2023-07-16T01:39:37;19.10;99.90
4399;DHT22;2213;49.720;7.296;2023-07-16T01:42:07;19.10;99.90
4399;DHT22;2213;49.720;7.296;2023-07-16T01:44:38;19.10;99.90
4399;DHT22;2213;49.720;7.296;2023-07-16T01:47:10;19.00;99.90
4399;DHT22;2213;49.720;7.296;2023-07-16T01:49:41;19.00;99.90
4399;DHT22;2213;49.720;7.296;2023-07-16T01:52:11;19.00;99.90
4399;DHT22;2213;49.720;7.296;2023-07-16T01:54:42;19.00;99.90
4399;DHT22;2213;49.720;7.296;2023-07-16T01:57:12;18.90;99.90
4399;DHT22;2213;49.720;7.296;2023-07-16T01:59:44;18.90;99.90
4399;DHT22;2213;49.720;7.296;2023-07-16T02:02:14;18.90;99.90
4399;DHT22;2213;49.720;7.296;2023-07-16T02:04:44;18.70;99.90
4399;DHT22;2213;49.720;7.296;2023-07-16T02:07:14;18.80;99.90
4399;DHT22;2213;49.720;7.296;2023-07-16T02:09:44;18.80;99.90
4399;DHT22;2213;49.720;7.296;2023-07-16T02:12:14;18.80;99.90
4399;DHT22;2213;49.720;7.296;2023-07-16T02:14:46;18.80;99.90
4399;DHT22;2213;49.720;7.296;2023-07-16T02:17:17;18.70;99.90
4399;DHT22;2213;49.720;7.296;2023-07-16T02:19:48;18.70;99.90
4399;DHT22;2213;49.720;7.296;2023-07-16T02:22:18;18.70;99.90
4399;DHT22;2213;49.720;7.296;2023-07-16T02:24:49;18.60;99.90
4399;DHT22;2213;49.720;7.296;2023-07-16T02:27:19;18.50;99.90
4399;DHT22;2213;49.720;7.296;2023-07-16T02:29:51;18.50;99.90
4399;DHT22;2213;49.720;7.296;2023-07-16T02:32:21;18.50;99.90
4399;DHT22;2213;49.720;7.296;2023-07-16T02:34:51;18.50;99.90
4399;DHT22;2213;49.720;7.296;2023-07-16T02:37:21;18.50;99.90
4399;DHT22;2213;49.720;7.296;2023-07-16T02:39:51;18.50;99.90
4399;DHT22;2213;49.720;7.296;2023-07-16T02:42:21;18.50;99.90
4399;DHT22;2213;49.720;7.296;2023-07-16T02:44:53;18.50;99.90
4399;DHT22;2213;49.720;7.296;2023-07-16T02:47:21;18.40;99.90
4399;DHT22;2213;49.720;7.296;2023-07-16T02:49:51;18.40;99.90
4399;DHT22;2213;49.720;7.296;2023-07-16T02:52:21;18.30;99.90
4399;DHT22;2213;49.720;7.296;2023-07-16T02:54:52;18.40;99.90
4399;DHT22;2213;49.720;7.296;2023-07-16T02:57:22;18.40;99.90
4399;DHT22;2213;49.720;7.296;2023-07-16T02:59:52;18.30;99.90
4399;DHT22;2213;49.720;7.296;2023-07-16T03:02:22;18.20;99.90
4399;DHT22;2213;49.720;7.296;2023-07-16T03:04:54;18.20;99.90
4399;DHT22;2213;49.720;7.296;2023-07-16T03:07:25;18.20;99.90
4399;DHT22;2213;49.720;7.296;2023-07-16T03:09:56;18.20;99.90
4399;DHT22;2213;49.720;7.296;2023-07-16T03:12:26;18.20;99.90
4399;DHT22;2213;49.720;7.296;2023-07-16T03:14:58;18.10;99.90
4399;DHT22;2213;49.720;7.296;2023-07-16T03:17:28;18.10;99.90
4399;DHT22;2213;49.720;7.296;2023-07-16T03:19:58;18.10;99.90
4399;DHT22;2213;49.720;7.296;2023-07-16T03:22:28;18.10;99.90
4399;DHT22;2213;49.720;7.296;2023-07-16T03:24:58;18.00;99.90
4399;DHT22;2213;49.720;7.296;2023-07-16T03:27:30;18.10;99.90
4399;DHT22;2213;49.720;7.296;2023-07-16T03:30:02;18.00;99.90
4399;DHT22;2213;49.720;7.296;2023-07-16T03:32:34;18.00;99.90
4399;DHT22;2213;49.720;7.296;2023-07-16T03:35:19;17.90;99.90
4399;DHT22;2213;49.720;7.296;2023-07-16T03:37:52;17.90;99.90
4399;DHT22;2213;49.720;7.296;2023-07-16T03:40:26;17.90;99.90
4399;DHT22;2213;49.720;7.296;2023-07-16T03:42:55;17.90;99.90
4399;DHT22;2213;49.720;7.296;2023-07-16T03:45:28;17.90;99.90
4399;DHT22;2213;49.720;7.296;2023-07-16T03:47:59;17.80;99.90
4399;DHT22;2213;49.720;7.296;2023-07-16T03:50:29;17.80;99.90
4399;DHT22;2213;49.720;7.296;2023-07-16T03:52:59;17.80;99.90
4399;DHT22;2213;49.720;7.296;2023-07-16T03:55:30;17.80;99.90
4399;DHT22;2213;49.720;7.296;2023-07-16T03:58:00;17.70;99.90
4399;DHT22;2213;49.720;7.296;2023-07-16T04:00:31;17.70;99.90
4399;DHT22;2213;49.720;7.296;2023-07-16T04:03:02;17.70;99.90
4399;DHT22;2213;49.720;7.296;2023-07-16T04:05:31;17.70;99.90
4399;DHT22;2213;49.720;7.296;2023-07-16T04:08:01;17.60;99.90
4399;DHT22;2213;49.720;7.296;2023-07-16T04:10:31;17.70;99.90
4399;DHT22;2213;49.720;7.296;2023-07-16T04:13:02;17.60;99.90
4399;DHT22;2213;49.720;7.296;2023-07-16T04:15:35;17.60;99.90
4399;DHT22;2213;49.720;7.296;2023-07-16T04:18:04;17.50;99.90
4399;DHT22;2213;49.720;7.296;2023-07-16T04:20:32;17.60;99.90
4399;DHT22;2213;49.720;7.296;2023-07-16T04:23:02;17.50;99.90
4399;DHT22;2213;49.720;7.296;2023-07-16T04:25:32;17.50;99.90
4399;DHT22;2213;49.720;7.296;2023-07-16T04:28:03;17.50;99.90
4399;DHT22;2213;49.720;7.296;2023-07-16T04:30:34;17.50;99.90
4399;DHT22;2213;49.720;7.296;2023-07-16T04:33:05;17.50;99.90
4399;DHT22;2213;49.720;7.296;2023-07-16T04:35:35;17.50;99.90
4399;DHT22;2213;49.720;7.296;2023-07-16T04:38:05;17.50;99.90
4399;DHT22;2213;49.720;7.296;2023-07-16T04:40:36;17.50;99.90
4399;DHT22;2213;49.720;7.296;2023-07-16T04:43:07;17.50;99.90
4399;DHT22;2213;49.720;7.296;2023-07-16T04:45:40;17.50;99.90
4399;DHT22;2213;49.720;7.296;2023-07-16T04:48:09;17.50;99.90
4399;DHT22;2213;49.720;7.296;2023-07-16T04:50:38;17.50;99.90
4399;DHT22;2213;49.720;7.296;2023-07-16T04:53:09;17.40;99.90
4399;DHT22;2213;49.720;7.296;2023-07-16T04:55:39;17.40;99.90
4399;DHT22;2213;49.720;7.296;2023-07-16T04:58:10;17.50;99.90
4399;DHT22;2213;49.720;7.296;2023-07-16T05:00:42;17.50;99.90
4399;DHT22;2213;49.720;7.296;2023-07-16T05:03:12;17.40;99.90
4399;DHT22;2213;49.720;7.296;2023-07-16T05:05:43;17.40;99.90
4399;DHT22;2213;49.720;7.296;2023-07-16T05:08:13;17.40;99.90
4399;DHT22;2213;49.720;7.296;2023-07-16T05:10:42;17.40;99.90
4399;DHT22;2213;49.720;7.296;2023-07-16T05:13:13;17.40;99.90
4399;DHT22;2213;49.720;7.296;2023-07-16T05:15:46;17.40;99.90
4399;DHT22;2213;49.720;7.296;2023-07-16T05:18:16;17.50;99.90
4399;DHT22;2213;49.720;7.296;2023-07-16T05:20:47;17.50;99.90
4399;DHT22;2213;49.720;7.296;2023-07-16T05:23:16;17.50;99.90
4399;DHT22;2213;49.720;7.296;2023-07-16T05:25:49;17.50;99.90
4399;DHT22;2213;49.720;7.296;2023-07-16T05:28:20;17.50;99.90
4399;DHT22;2213;49.720;7.296;2023-07-16T05:30:59;17.60;99.90
4399;DHT22;2213;49.720;7.296;2023-07-16T05:33:29;17.60;99.90
4399;DHT22;2213;49.720;7.296;2023-07-16T05:35:59;17.70;99.90
4399;DHT22;2213;49.720;7.296;2023-07-16T05:38:31;17.60;99.90
4399;DHT22;2213;49.720;7.296;2023-07-16T05:41:02;17.70;99.90
4399;DHT22;2213;49.720;7.296;2023-07-16T05:43:33;17.70;99.90
4399;DHT22;2213;49.720;7.296;2023-07-16T05:46:05;17.60;99.90
4399;DHT22;2213;49.720;7.296;2023-07-16T05:48:35;17.60;99.90
4399;DHT22;2213;49.720;7.296;2023-07-16T05:51:04;17.60;99.90
4399;DHT22;2213;49.720;7.296;2023-07-16T05:53:35;17.60;99.90
4399;DHT22;2213;49.720;7.296;2023-07-16T05:56:05;17.70;99.90
4399;DHT22;2213;49.720;7.296;2023-07-16T05:58:35;17.70;99.90
4399;DHT22;2213;49.720;7.296;2023-07-16T06:01:08;17.70;99.90
4399;DHT22;2213;49.720;7.296;2023-07-16T06:03:38;17.70;99.90
4399;DHT22;2213;49.720;7.296;2023-07-16T06:06:08;17.60;99.90
4399;DHT22;2213;49.720;7.296;2023-07-16T06:08:42;17.60;99.90
4399;DHT22;2213;49.720;7.296;2023-07-16T06:11:12;17.60;99.90
4399;DHT22;2213;49.720;7.296;2023-07-16T06:13:42;17.60;99.90
4399;DHT22;2213;49.720;7.296;2023-07-16T06:16:14;17.70;99.90
4399;DHT22;2213;49.720;7.296;2023-07-16T06:18:45;17.70;99.90
4399;DHT22;2213;49.720;7.296;2023-07-16T06:21:15;17.80;99.90
4399;DHT22;2213;49.720;7.296;2023-07-16T06:23:45;17.80;99.90
4399;DHT22;2213;49.720;7.296;2023-07-16T06:26:16;17.70;99.90
4399;DHT22;2213;49.720;7.296;2023-07-16T06:28:49;17.70;99.90
4399;DHT22;2213;49.720;7.296;2023-07-16T06:31:21;17.80;99.90
4399;DHT22;2213;49.720;7.296;2023-07-16T06:33:53;17.80;99.90
4399;DHT22;2213;49.720;7.296;2023-07-16T06:36:26;17.90;99.90
4399;DHT22;2213;49.720;7.296;2023-07-16T06:38:58;17.90;99.90
4399;DHT22;2213;49.720;7.296;2023-07-16T06:41:29;17.90;99.90
4399;DHT22;2213;49.720;7.296;2023-07-16T06:43:59;17.90;99.90
4399;DHT22;2213;49.720;7.296;2023-07-16T06:46:31;17.90;99.90
4399;DHT22;2213;49.720;7.296;2023-07-16T06:49:01;18.00;99.90
4399;DHT22;2213;49.720;7.296;2023-07-16T06:51:31;18.00;99.90
4399;DHT22;2213;49.720;7.296;2023-07-16T06:54:02;18.00;99.90
4399;DHT22;2213;49.720;7.296;2023-07-16T06:56:33;17.90;99.90
4399;DHT22;2213;49.720;7.296;2023-07-16T06:59:03;17.90;99.90
4399;DHT22;2213;49.720;7.296;2023-07-16T07:01:35;18.00;99.90
4399;DHT22;2213;49.720;7.296;2023-07-16T07:04:07;18.00;99.90
4399;DHT22;2213;49.720;7.296;2023-07-16T07:06:38;18.00;99.90
4399;DHT22;2213;49.720;7.296;2023-07-16T07:09:09;18.00;99.90
4399;DHT22;2213;49.720;7.296;2023-07-16T07:11:39;18.00;99.90
4399;DHT22;2213;49.720;7.296;2023-07-16T07:14:08;17.90;99.90
4399;DHT22;2213;49.720;7.296;2023-07-16T07:16:40;18.00;99.90
4399;DHT22;2213;49.720;7.296;2023-07-16T07:19:10;17.90;99.90
4399;DHT22;2213;49.720;7.296;2023-07-16T07:21:41;17.90;99.90
4399;DHT22;2213;49.720;7.296;2023-07-16T07:24:10;18.00;99.90
4399;DHT22;2213;49.720;7.296;2023-07-16T07:26:39;18.00;99.90
4399;DHT22;2213;49.720;7.296;2023-07-16T07:29:10;18.00;99.90
4399;DHT22;2213;49.720;7.296;2023-07-16T07:31:40;18.00;99.90
4399;DHT22;2213;49.720;7.296;2023-07-16T07:34:10;18.00;99.90
4399;DHT22;2213;49.720;7.296;2023-07-16T07:36:40;18.00;99.90
4399;DHT22;2213;49.720;7.296;2023-07-16T07:39:10;18.10;99.90
4399;DHT22;2213;49.720;7.296;2023-07-16T07:41:41;18.00;99.90
4399;DHT22;2213;49.720;7.296;2023-07-16T07:44:10;18.10;99.90
4399;DHT22;2213;49.720;7.296;2023-07-16T07:46:41;18.20;99.90
4399;DHT22;2213;49.720;7.296;2023-07-16T07:49:11;18.20;99.90
4399;DHT22;2213;49.720;7.296;2023-07-16T07:51:40;18.10;99.90
4399;DHT22;2213;49.720;7.296;2023-07-16T07:54:10;18.20;99.90
4399;DHT22;2213;49.720;7.296;2023-07-16T07:56:41;18.30;99.90
4399;DHT22;2213;49.720;7.296;2023-07-16T07:59:11;18.40;99.90
4399;DHT22;2213;49.720;7.296;2023-07-16T08:01:42;18.30;99.90
4399;DHT22;2213;49.720;7.296;2023-07-16T08:04:11;18.30;99.90
4399;DHT22;2213;49.720;7.296;2023-07-16T08:06:42;18.40;99.90
4399;DHT22;2213;49.720;7.296;2023-07-16T08:09:12;18.50;99.90
4399;DHT22;2213;49.720;7.296;2023-07-16T08:11:42;18.50;99.90
4399;DHT22;2213;49.720;7.296;2023-07-16T08:14:12;18.40;99.90
4399;DHT22;2213;49.720;7.296;2023-07-16T08:16:43;18.60;99.90
4399;DHT22;2213;49.720;7.296;2023-07-16T08:19:12;18.60;99.90
4399;DHT22;2213;49.720;7.296;2023-07-16T08:21:43;18.70;99.70
4399;DHT22;2213;49.720;7.296;2023-07-16T08:24:11;18.70;99.60
4399;DHT22;2213;49.720;7.296;2023-07-16T08:26:41;18.80;99.50
4399;DHT22;2213;49.720;7.296;2023-07-16T08:29:10;18.90;99.20
4399;DHT22;2213;49.720;7.296;2023-07-16T08:31:42;18.90;99.00
4399;DHT22;2213;49.720;7.296;2023-07-16T08:34:12;19.00;98.80
4399;DHT22;2213;49.720;7.296;2023-07-16T08:36:41;18.90;98.30
4399;DHT22;2213;49.720;7.296;2023-07-16T08:39:11;19.00;98.60
4399;DHT22;2213;49.720;7.296;2023-07-16T08:41:41;19.20;99.00
4399;DHT22;2213;49.720;7.296;2023-07-16T08:44:11;19.10;98.10
4399;DHT22;2213;49.720;7.296;2023-07-16T08:46:43;19.00;98.10
4399;DHT22;2213;49.720;7.296;2023-07-16T08:49:13;19.10;98.20
4399;DHT22;2213;49.720;7.296;2023-07-16T08:51:47;19.20;97.80
4399;DHT22;2213;49.720;7.296;2023-07-16T08:54:17;19.10;97.50
4399;DHT22;2213;49.720;7.296;2023-07-16T08:56:48;19.10;97.60
4399;DHT22;2213;49.720;7.296;2023-07-16T08:59:18;19.10;97.70
4399;DHT22;2213;49.720;7.296;2023-07-16T09:01:48;19.10;97.50
4399;DHT22;2213;49.720;7.296;2023-07-16T09:04:17;19.20;97.10
4399;DHT22;2213;49.720;7.296;2023-07-16T09:06:47;19.30;97.10
4399;DHT22;2213;49.720;7.296;2023-07-16T09:09:21;19.20;97.40
4399;DHT22;2213;49.720;7.296;2023-07-16T09:11:52;19.20;97.70
4399;DHT22;2213;49.720;7.296;2023-07-16T09:14:21;19.30;97.70
4399;DHT22;2213;49.720;7.296;2023-07-16T09:16:52;19.30;96.90
4399;DHT22;2213;49.720;7.296;2023-07-16T09:19:21;19.50;96.80
4399;DHT22;2213;49.720;7.296;2023-07-16T09:21:51;19.50;96.20
4399;DHT22;2213;49.720;7.296;2023-07-16T09:24:21;19.50;96.10
4399;DHT22;2213;49.720;7.296;2023-07-16T09:26:51;19.60;96.10
4399;DHT22;2213;49.720;7.296;2023-07-16T09:29:21;19.70;95.90
4399;DHT22;2213;49.720;7.296;2023-07-16T09:31:58;19.60;96.00
4399;DHT22;2213;49.720;7.296;2023-07-16T09:34:31;19.80;95.80
4399;DHT22;2213;49.720;7.296;2023-07-16T09:37:01;19.90;95.30
4399;DHT22;2213;49.720;7.296;2023-07-16T09:39:32;19.90;95.90
4399;DHT22;2213;49.720;7.296;2023-07-16T09:42:04;19.80;95.30
4399;DHT22;2213;49.720;7.296;2023-07-16T09:44:35;19.80;95.80
4399;DHT22;2213;49.720;7.296;2023-07-16T09:47:07;19.90;95.60
4399;DHT22;2213;49.720;7.296;2023-07-16T09:49:38;19.90;95.70
4399;DHT22;2213;49.720;7.296;2023-07-16T09:52:09;19.90;95.40
4399;DHT22;2213;49.720;7.296;2023-07-16T09:54:39;20.00;95.80
4399;DHT22;2213;49.720;7.296;2023-07-16T09:57:10;20.00;95.40
4399;DHT22;2213;49.720;7.296;2023-07-16T09:59:40;20.00;95.60
4399;DHT22;2213;49.720;7.296;2023-07-16T10:02:11;20.00;95.00
4399;DHT22;2213;49.720;7.296;2023-07-16T10:04:41;20.10;94.60
4399;DHT22;2213;49.720;7.296;2023-07-16T10:07:19;20.10;94.20
4399;DHT22;2213;49.720;7.296;2023-07-16T10:09:54;20.10;94.30
4399;DHT22;2213;49.720;7.296;2023-07-16T10:12:25;20.20;94.00
4399;DHT22;2213;49.720;7.296;2023-07-16T10:14:56;20.10;94.00
4399;DHT22;2213;49.720;7.296;2023-07-16T10:17:30;20.20;94.30
4399;DHT22;2213;49.720;7.296;2023-07-16T10:20:08;20.10;94.10
4399;DHT22;2213;49.720;7.296;2023-07-16T10:22:39;19.90;93.40
4399;DHT22;2213;49.720;7.296;2023-07-16T10:25:21;19.90;93.80
4399;DHT22;2213;49.720;7.296;2023-07-16T10:27:53;20.00;94.00
4399;DHT22;2213;49.720;7.296;2023-07-16T10:30:23;20.10;93.80
4399;DHT22;2213;49.720;7.296;2023-07-16T10:32:53;20.10;93.60
4399;DHT22;2213;49.720;7.296;2023-07-16T10:35:23;20.00;93.10
4399;DHT22;2213;49.720;7.296;2023-07-16T10:37:54;20.10;93.60
4399;DHT22;2213;49.720;7.296;2023-07-16T10:40:26;20.20;93.50
4399;DHT22;2213;49.720;7.296;2023-07-16T10:42:55;20.10;93.50
4399;DHT22;2213;49.720;7.296;2023-07-16T10:45:26;20.30;93.40
4399;DHT22;2213;49.720;7.296;2023-07-16T10:47:58;20.30;93.40
4399;DHT22;2213;49.720;7.296;2023-07-16T10:50:28;20.40;93.50
4399;DHT22;2213;49.720;7.296;2023-07-16T10:52:57;20.40;93.30
4399;DHT22;2213;49.720;7.296;2023-07-16T10:55:27;20.40;93.00
4399;DHT22;2213;49.720;7.296;2023-07-16T10:58:03;20.40;93.30
4399;DHT22;2213;49.720;7.296;2023-07-16T11:00:38;20.50;93.70
4399;DHT22;2213;49.720;7.296;2023-07-16T11:03:09;20.60;93.00
4399;DHT22;2213;49.720;7.296;2023-07-16T11:05:40;20.60;93.00
4399;DHT22;2213;49.720;7.296;2023-07-16T11:08:09;20.40;93.20
4399;DHT22;2213;49.720;7.296;2023-07-16T11:10:39;20.50;93.20
4399;DHT22;2213;49.720;7.296;2023-07-16T11:13:09;20.50;93.10
4399;DHT22;2213;49.720;7.296;2023-07-16T11:15:39;20.60;93.40
4399;DHT22;2213;49.720;7.296;2023-07-16T11:18:10;20.60;93.10
4399;DHT22;2213;49.720;7.296;2023-07-16T11:20:41;20.40;93.40
4399;DHT22;2213;49.720;7.296;2023-07-16T11:23:11;20.50;93.50
4399;DHT22;2213;49.720;7.296;2023-07-16T11:25:46;20.60;93.60
4399;DHT22;2213;49.720;7.296;2023-07-16T11:28:16;20.50;93.40
4399;DHT22;2213;49.720;7.296;2023-07-16T11:30:46;20.60;94.00
4399;DHT22;2213;49.720;7.296;2023-07-16T11:33:17;20.70;93.50
4399;DHT22;2213;49.720;7.296;2023-07-16T11:35:47;20.70;93.20
4399;DHT22;2213;49.720;7.296;2023-07-16T11:38:18;20.70;92.80
4399;DHT22;2213;49.720;7.296;2023-07-16T11:40:47;20.70;93.30
4399;DHT22;2213;49.720;7.296;2023-07-16T11:43:20;20.60;93.30
4399;DHT22;2213;49.720;7.296;2023-07-16T11:45:50;20.70;93.30
4399;DHT22;2213;49.720;7.296;2023-07-16T11:48:21;20.80;93.00
4399;DHT22;2213;49.720;7.296;2023-07-16T11:50:52;20.90;92.90
4399;DHT22;2213;49.720;7.296;2023-07-16T11:53:21;20.80;93.00
4399;DHT22;2213;49.720;7.296;2023-07-16T11:55:50;20.80;92.30
4399;DHT22;2213;49.720;7.296;2023-07-16T11:58:20;21.00;92.60
4399;DHT22;2213;49.720;7.296;2023-07-16T12:00:49;21.00;92.60
4399;DHT22;2213;49.720;7.296;2023-07-16T12:03:21;21.00;92.40
4399;DHT22;2213;49.720;7.296;2023-07-16T12:05:52;20.90;92.10
4399;DHT22;2213;49.720;7.296;2023-07-16T12:08:22;21.00;92.70
4399;DHT22;2213;49.720;7.296;2023-07-16T12:10:52;21.10;92.10
4399;DHT22;2213;49.720;7.296;2023-07-16T12:13:22;21.10;91.50
4399;DHT22;2213;49.720;7.296;2023-07-16T12:15:52;21.20;91.60
4399;DHT22;2213;49.720;7.296;2023-07-16T12:18:24;21.20;92.00
4399;DHT22;2213;49.720;7.296;2023-07-16T12:20:53;21.40;92.60
4399;DHT22;2213;49.720;7.296;2023-07-16T12:23:23;21.50;91.90
4399;DHT22;2213;49.720;7.296;2023-07-16T12:25:53;21.50;91.10
4399;DHT22;2213;49.720;7.296;2023-07-16T12:28:22;21.70;91.50
4399;DHT22;2213;49.720;7.296;2023-07-16T12:30:52;21.70;90.90
4399;DHT22;2213;49.720;7.296;2023-07-16T12:33:23;21.70;91.00
4399;DHT22;2213;49.720;7.296;2023-07-16T12:35:53;21.70;91.30
4399;DHT22;2213;49.720;7.296;2023-07-16T12:38:22;21.70;91.10
4399;DHT22;2213;49.720;7.296;2023-07-16T12:40:53;21.70;91.50
4399;DHT22;2213;49.720;7.296;2023-07-16T12:43:22;21.90;91.40
4399;DHT22;2213;49.720;7.296;2023-07-16T12:45:52;21.90;91.60
4399;DHT22;2213;49.720;7.296;2023-07-16T12:48:24;21.90;91.10
4399;DHT22;2213;49.720;7.296;2023-07-16T12:50:53;22.00;90.80
4399;DHT22;2213;49.720;7.296;2023-07-16T12:53:23;22.10;90.60
4399;DHT22;2213;49.720;7.296;2023-07-16T12:55:53;22.00;90.70
4399;DHT22;2213;49.720;7.296;2023-07-16T12:58:22;22.00;91.10
4399;DHT22;2213;49.720;7.296;2023-07-16T13:00:52;22.00;91.10
4399;DHT22;2213;49.720;7.296;2023-07-16T13:03:24;22.10;91.40
4399;DHT22;2213;49.720;7.296;2023-07-16T13:05:54;22.30;90.70
4399;DHT22;2213;49.720;7.296;2023-07-16T13:08:24;22.20;91.00
4399;DHT22;2213;49.720;7.296;2023-07-16T13:10:55;22.10;90.70
4399;DHT22;2213;49.720;7.296;2023-07-16T13:13:24;22.10;91.10
4399;DHT22;2213;49.720;7.296;2023-07-16T13:15:53;22.00;91.10
4399;DHT22;2213;49.720;7.296;2023-07-16T13:18:24;22.20;91.60
4399;DHT22;2213;49.720;7.296;2023-07-16T13:20:54;22.30;91.60
4399;DHT22;2213;49.720;7.296;2023-07-16T13:23:25;22.30;91.40
4399;DHT22;2213;49.720;7.296;2023-07-16T13:25:54;22.30;91.80
4399;DHT22;2213;49.720;7.296;2023-07-16T13:28:25;22.40;90.70
4399;DHT22;2213;49.720;7.296;2023-07-16T13:30:54;22.30;91.10
4399;DHT22;2213;49.720;7.296;2023-07-16T13:33:26;22.30;91.30
4399;DHT22;2213;49.720;7.296;2023-07-16T13:35:54;22.40;91.30
4399;DHT22;2213;49.720;7.296;2023-07-16T13:38:24;22.50;90.50
4399;DHT22;2213;49.720;7.296;2023-07-16T13:40:53;22.50;90.60
4399;DHT22;2213;49.720;7.296;2023-07-16T13:43:23;22.50;89.50
4399;DHT22;2213;49.720;7.296;2023-07-16T13:45:53;22.50;90.10
4399;DHT22;2213;49.720;7.296;2023-07-16T13:48:23;22.60;90.40
4399;DHT22;2213;49.720;7.296;2023-07-16T13:50:53;22.50;90.60
4399;DHT22;2213;49.720;7.296;2023-07-16T13:53:24;22.60;90.80
4399;DHT22;2213;49.720;7.296;2023-07-16T13:55:54;22.60;90.60
4399;DHT22;2213;49.720;7.296;2023-07-16T13:58:25;22.70;90.80
4399;DHT22;2213;49.720;7.296;2023-07-16T14:00:56;22.80;90.60
4399;DHT22;2213;49.720;7.296;2023-07-16T14:03:26;23.00;90.40
4399;DHT22;2213;49.720;7.296;2023-07-16T14:05:57;22.90;90.60
4399;DHT22;2213;49.720;7.296;2023-07-16T14:08:26;23.10;91.00
4399;DHT22;2213;49.720;7.296;2023-07-16T14:10:56;23.00;90.80
4399;DHT22;2213;49.720;7.296;2023-07-16T14:13:25;23.10;90.50
4399;DHT22;2213;49.720;7.296;2023-07-16T14:15:54;23.10;90.60
4399;DHT22;2213;49.720;7.296;2023-07-16T14:18:23;23.30;90.60
4399;DHT22;2213;49.720;7.296;2023-07-16T14:20:52;23.10;89.90
4399;DHT22;2213;49.720;7.296;2023-07-16T14:23:23;23.10;88.00
4399;DHT22;2213;49.720;7.296;2023-07-16T14:25:55;23.10;89.30
4399;DHT22;2213;49.720;7.296;2023-07-16T14:28:25;23.20;90.00
4399;DHT22;2213;49.720;7.296;2023-07-16T14:30:56;23.30;89.10
4399;DHT22;2213;49.720;7.296;2023-07-16T14:33:25;23.20;88.70
4399;DHT22;2213;49.720;7.296;2023-07-16T14:35:55;23.20;87.90
4399;DHT22;2213;49.720;7.296;2023-07-16T14:38:26;23.40;87.90
4399;DHT22;2213;49.720;7.296;2023-07-16T14:40:56;23.50;87.70
4399;DHT22;2213;49.720;7.296;2023-07-16T14:43:26;23.30;87.40
4399;DHT22;2213;49.720;7.296;2023-07-16T14:45:56;23.50;88.30
4399;DHT22;2213;49.720;7.296;2023-07-16T14:48:26;23.60;88.20
4399;DHT22;2213;49.720;7.296;2023-07-16T14:50:56;23.70;86.70
4399;DHT22;2213;49.720;7.296;2023-07-16T14:53:27;23.80;86.30
4399;DHT22;2213;49.720;7.296;2023-07-16T14:55:58;24.00;88.30
4399;DHT22;2213;49.720;7.296;2023-07-16T14:58:27;24.20;87.10
4399;DHT22;2213;49.720;7.296;2023-07-16T15:00:59;24.20;86.60
4399;DHT22;2213;49.720;7.296;2023-07-16T15:03:31;24.30;86.30
4399;DHT22;2213;49.720;7.296;2023-07-16T15:06:00;24.40;86.70
4399;DHT22;2213;49.720;7.296;2023-07-16T15:08:31;24.40;84.50
4399;DHT22;2213;49.720;7.296;2023-07-16T15:11:01;24.60;85.10
4399;DHT22;2213;49.720;7.296;2023-07-16T15:13:31;24.70;83.70
4399;DHT22;2213;49.720;7.296;2023-07-16T15:16:00;24.80;83.30
4399;DHT22;2213;49.720;7.296;2023-07-16T15:18:31;24.80;82.60
4399;DHT22;2213;49.720;7.296;2023-07-16T15:21:01;24.80;81.30
4399;DHT22;2213;49.720;7.296;2023-07-16T15:23:33;24.80;81.10
4399;DHT22;2213;49.720;7.296;2023-07-16T15:26:04;24.90;81.70
4399;DHT22;2213;49.720;7.296;2023-07-16T15:28:38;25.00;79.80
4399;DHT22;2213;49.720;7.296;2023-07-16T15:31:10;25.10;79.10
4399;DHT22;2213;49.720;7.296;2023-07-16T15:33:40;25.10;80.30
4399;DHT22;2213;49.720;7.296;2023-07-16T15:36:11;25.10;81.50
4399;DHT22;2213;49.720;7.296;2023-07-16T15:38:43;25.10;80.30
4399;DHT22;2213;49.720;7.296;2023-07-16T15:41:16;24.70;81.20
4399;DHT22;2213;49.720;7.296;2023-07-16T15:43:48;24.80;81.60
4399;DHT22;2213;49.720;7.296;2023-07-16T15:46:17;24.80;81.70
4399;DHT22;2213;49.720;7.296;2023-07-16T15:48:47;24.80;81.70
4399;DHT22;2213;49.720;7.296;2023-07-16T15:51:18;24.80;79.40
4399;DHT22;2213;49.720;7.296;2023-07-16T15:53:52;24.90;79.80
4399;DHT22;2213;49.720;7.296;2023-07-16T15:56:22;24.90;79.90
4399;DHT22;2213;49.720;7.296;2023-07-16T15:58:52;24.90;80.20
4399;DHT22;2213;49.720;7.296;2023-07-16T16:01:22;24.80;79.60
4399;DHT22;2213;49.720;7.296;2023-07-16T16:03:52;24.80;80.10
4399;DHT22;2213;49.720;7.296;2023-07-16T16:06:21;24.70;78.90
4399;DHT22;2213;49.720;7.296;2023-07-16T16:08:52;24.70;78.40
4399;DHT22;2213;49.720;7.296;2023-07-16T16:11:23;24.70;79.80
4399;DHT22;2213;49.720;7.296;2023-07-16T16:13:53;24.50;78.20
4399;DHT22;2213;49.720;7.296;2023-07-16T16:16:23;24.50;79.80
4399;DHT22;2213;49.720;7.296;2023-07-16T16:18:54;24.60;78.40
4399;DHT22;2213;49.720;7.296;2023-07-16T16:21:25;24.50;79.00
4399;DHT22;2213;49.720;7.296;2023-07-16T16:23:57;24.60;79.00
4399;DHT22;2213;49.720;7.296;2023-07-16T16:26:28;24.40;78.90
4399;DHT22;2213;49.720;7.296;2023-07-16T16:28:57;24.40;78.90